Onde está Bunheira en Portugal?

Bunheira está situado na região Santarem em Portugal!

Buscar o nome de uma cidade:

Bunhlo Hill, Bunhar Kili, Bunhague, Bunhalar, Bunhosa

Aqui você vai encontrar a localização de Bunheira em um mapa.
Para ver como ele atualmente parece, abaixo estão algumas fotos da região, com webcams online.
Você também pode encontrar a distância para as principais cidades da região e de cidades do resto do Portugal.

Todos os lugares do mundo chamado .

new

Onde está Bunheira no mapa?


Webcams perto Bunheira

Benavente > North-East: AIrport, METAR: BENAV 180005Z 36004KT 17/14 Q1015.


Benavente > North-East: AIrport, METAR: BENAV 180005Z 36004KT 17/14 Q1015 - Dia
Actual
Benavente > North-East: AIrport, METAR: BENAV 180005Z 36004KT 17/14 Q1015 - Actual

Abrantes > South-West: Centro Cidade.


Abrantes > South-West: Centro Cidade - Dia
Actual
Abrantes > South-West: Centro Cidade - Actual

Abrantes > North-West: > North-West: Zona Alta (Torre).


Abrantes > North-West: > North-West: Zona Alta (Torre) - Dia
Actual
Abrantes > North-West: > North-West: Zona Alta (Torre) - Actual

Webcams provided by webcams.travel

Distâncias

Onde está Bunheira em relação a outros lugares?

Top 10 cidades em Santarem e distância de Bunheira.

Cidade#Populaçãokmmilhas
Santarém1293852717
Entroncamento2198873924
Tomar3191685333
Torres Novas4145264226
Samora Correia5141544729
Abrantes6136464025
Ourém7127296037
Rio Maior8120645333
Fátima9117986037
Almeirim10115562113

Top 10 cidades em Portugal e distância de Bunheira.

Cidade # Populaçãokmmilhas
Lisbon15177987949
Porto2249630225140
Amadora31788568553
Braga4121393269167
Setúbal51171098050
Coimbra610658011974
Queluz71033988553
Funchal8980411053654
Vila Nova de Gaia970810224139
Loures10662307647